createdAt,value
2023-01-04T00:00:01.919Z,0.00
2023-01-04T00:01:01.963Z,0.00
2023-01-04T00:02:01.936Z,0.00
2023-01-04T00:03:01.980Z,0.00
2023-01-04T00:04:02.030Z,0.00
2023-01-04T00:05:01.872Z,0.00
2023-01-04T00:06:01.879Z,0.00
2023-01-04T00:07:01.855Z,0.00
2023-01-04T00:08:01.880Z,0.00
2023-01-04T00:09:01.814Z,0.00
2023-01-04T00:10:01.881Z,0.00
2023-01-04T00:11:01.812Z,0.00
2023-01-04T00:12:01.808Z,0.00
2023-01-04T00:13:01.793Z,0.00
2023-01-04T00:14:01.833Z,0.00
2023-01-04T00:15:01.761Z,0.00
2023-01-04T00:16:07.521Z,0.00
2023-01-04T00:17:02.741Z,0.00
2023-01-04T00:18:01.734Z,0.00
2023-01-04T00:19:01.759Z,0.00
2023-01-04T00:20:01.753Z,0.00
2023-01-04T00:21:01.686Z,0.00
2023-01-04T00:22:01.703Z,0.00
2023-01-04T00:23:01.680Z,0.00
2023-01-04T00:24:01.759Z,0.00
2023-01-04T00:25:01.668Z,0.00
2023-01-04T00:26:01.644Z,0.00
2023-01-04T00:27:01.632Z,0.00
2023-01-04T00:28:01.656Z,0.00
2023-01-04T00:29:01.629Z,0.00
2023-01-04T00:30:01.631Z,20.00
2023-01-04T00:31:01.637Z,16.00
2023-01-04T00:32:01.580Z,16.00
2023-01-04T00:33:01.568Z,0.00
2023-01-04T00:34:01.609Z,0.00
2023-01-04T00:35:01.539Z,0.00
2023-01-04T00:36:01.544Z,0.00
2023-01-04T00:37:01.533Z,0.00
2023-01-04T00:38:01.525Z,0.00
2023-01-04T00:39:01.522Z,0.00
2023-01-04T00:40:01.531Z,0.00
2023-01-04T00:41:01.475Z,0.00
2023-01-04T00:42:01.958Z,0.00
2023-01-04T00:43:01.455Z,0.00
2023-01-04T00:44:01.452Z,0.00
2023-01-04T00:45:01.446Z,0.00
2023-01-04T00:46:01.535Z,0.00
2023-01-04T00:47:01.410Z,0.00
2023-01-04T00:48:01.411Z,0.00
2023-01-04T00:49:01.416Z,0.00
2023-01-04T00:50:01.418Z,0.00
2023-01-04T00:51:01.378Z,0.00
2023-01-04T00:52:01.384Z,0.00
2023-01-04T00:53:01.353Z,0.00
2023-01-04T00:54:01.385Z,0.00
2023-01-04T00:55:01.357Z,0.00
2023-01-04T00:56:01.337Z,0.00
2023-01-04T00:57:01.457Z,0.00
2023-01-04T00:58:01.326Z,0.00
2023-01-04T00:59:01.316Z,0.00
2023-01-04T01:00:01.332Z,0.00
2023-01-04T01:01:01.277Z,0.00
2023-01-04T01:02:01.414Z,0.00
2023-01-04T01:03:01.348Z,0.00
2023-01-04T01:04:01.334Z,0.00
2023-01-04T01:05:01.260Z,0.00
2023-01-04T01:06:01.292Z,0.00
2023-01-04T01:07:01.220Z,0.00
2023-01-04T01:08:01.216Z,0.00
2023-01-04T01:09:01.222Z,0.00
2023-01-04T01:10:01.186Z,0.00
2023-01-04T01:11:01.216Z,0.00
2023-01-04T01:12:01.178Z,0.00
2023-01-04T01:13:01.178Z,0.00
2023-01-04T01:14:01.144Z,0.00
2023-01-04T01:15:01.247Z,0.00
2023-01-04T01:16:01.245Z,0.00
2023-01-04T01:17:01.184Z,0.00
2023-01-04T01:18:01.104Z,0.00
2023-01-04T01:19:01.096Z,0.00
2023-01-04T01:20:01.072Z,0.00
2023-01-04T01:21:01.118Z,0.00
2023-01-04T01:22:01.086Z,0.00
2023-01-04T01:23:01.086Z,0.00
2023-01-04T01:24:01.073Z,0.00
2023-01-04T01:25:01.029Z,0.00
2023-01-04T01:26:01.010Z,0.00
2023-01-04T01:27:01.009Z,0.00
2023-01-04T01:28:01.012Z,0.00
2023-01-04T01:29:01.000Z,0.00
2023-01-04T01:30:00.958Z,0.00
2023-01-04T01:31:05.130Z,0.00
2023-01-04T01:32:02.039Z,0.00
2023-01-04T01:33:00.950Z,0.00
2023-01-04T01:34:00.946Z,0.00
2023-01-04T01:35:00.993Z,0.00
2023-01-04T01:36:00.919Z,0.00
2023-01-04T01:37:00.939Z,0.00
2023-01-04T01:38:00.904Z,0.00
2023-01-04T01:39:00.875Z,0.00
2023-01-04T01:40:00.857Z,0.00
2023-01-04T01:41:00.870Z,0.00
2023-01-04T01:42:00.841Z,0.00
2023-01-04T01:43:00.871Z,0.00
2023-01-04T01:44:00.822Z,0.00
2023-01-04T01:45:00.832Z,0.00
2023-01-04T01:46:00.890Z,0.00
2023-01-04T01:47:00.959Z,0.00
2023-01-04T01:48:00.845Z,0.00
2023-01-04T01:49:00.792Z,0.00
2023-01-04T01:50:00.759Z,0.00
2023-01-04T01:51:00.757Z,0.00
2023-01-04T01:52:00.787Z,0.00
2023-01-04T01:53:00.752Z,0.00
2023-01-04T01:54:00.711Z,0.00
2023-01-04T01:55:00.761Z,0.00
2023-01-04T01:56:00.696Z,0.00
2023-01-04T01:57:00.698Z,0.00
2023-01-04T01:58:00.704Z,0.00
2023-01-04T01:59:00.681Z,0.00
2023-01-04T02:00:00.659Z,0.00
2023-01-04T02:01:00.667Z,0.00
2023-01-04T02:02:00.728Z,0.00
2023-01-04T02:03:00.766Z,0.00
2023-01-04T02:04:00.751Z,0.00
2023-01-04T02:05:00.613Z,0.00
2023-01-04T02:06:00.593Z,0.00
2023-01-04T02:07:00.609Z,0.00
2023-01-04T02:08:00.597Z,0.00
2023-01-04T02:09:00.608Z,0.00
2023-01-04T02:10:00.554Z,0.00
2023-01-04T02:11:00.564Z,0.00
2023-01-04T02:12:00.556Z,0.00
2023-01-04T02:13:00.537Z,0.00
2023-01-04T02:14:00.531Z,0.00
2023-01-04T02:15:00.525Z,0.00
2023-01-04T02:16:00.581Z,0.00
2023-01-04T02:17:00.505Z,0.00
2023-01-04T02:18:00.464Z,0.00
2023-01-04T02:19:00.496Z,0.00
2023-01-04T02:20:00.414Z,0.00
2023-01-04T02:21:00.461Z,0.00
2023-01-04T02:22:00.431Z,0.00
2023-01-04T02:23:00.435Z,0.00
2023-01-04T02:24:00.449Z,0.00
2023-01-04T02:25:00.443Z,0.00
2023-01-04T02:26:00.380Z,0.00
2023-01-04T02:27:00.394Z,0.00
2023-01-04T02:28:00.373Z,0.00
2023-01-04T02:29:00.366Z,0.00
2023-01-04T02:30:00.358Z,0.00
2023-01-04T02:31:00.383Z,0.00
2023-01-04T02:32:00.318Z,0.00
2023-01-04T02:33:00.357Z,0.00
2023-01-04T02:34:00.320Z,0.00
2023-01-04T02:35:00.335Z,0.00
2023-01-04T02:36:00.285Z,0.00
2023-01-04T02:37:00.289Z,0.00
2023-01-04T02:38:00.264Z,0.00
2023-01-04T02:39:00.271Z,0.00
2023-01-04T02:40:00.256Z,0.00
2023-01-04T02:41:00.240Z,0.00
2023-01-04T02:42:00.228Z,0.00
2023-01-04T02:43:00.207Z,0.00
2023-01-04T02:44:00.201Z,0.00
2023-01-04T02:45:00.224Z,0.00
2023-01-04T02:46:00.201Z,0.00
2023-01-04T02:47:00.318Z,0.00
2023-01-04T02:48:00.153Z,0.00
2023-01-04T02:49:00.153Z,0.00
2023-01-04T02:50:04.588Z,0.00
2023-01-04T02:51:01.135Z,0.00
2023-01-04T02:52:00.159Z,0.00
2023-01-04T02:53:00.115Z,0.00
2023-01-04T02:54:00.137Z,0.00
2023-01-04T02:55:00.139Z,0.00
2023-01-04T02:56:00.144Z,0.00
2023-01-04T02:57:05.139Z,0.00
2023-01-04T02:58:01.048Z,0.00
2023-01-04T02:59:00.048Z,0.00
2023-01-04T03:00:00.053Z,0.00
2023-01-04T03:01:00.053Z,0.00
2023-01-04T03:02:00.248Z,0.00
2023-01-04T03:03:00.208Z,0.00
2023-01-04T03:04:00.104Z,0.00
2023-01-04T03:04:59.987Z,0.00
2023-01-04T03:05:59.998Z,0.00
2023-01-04T03:06:59.986Z,0.00
2023-01-04T03:07:59.953Z,0.00
2023-01-04T03:08:59.965Z,0.00
2023-01-04T03:09:59.930Z,0.00
2023-01-04T03:10:59.952Z,0.00
2023-01-04T03:11:59.908Z,0.00
2023-01-04T03:12:59.907Z,0.00
2023-01-04T03:13:59.887Z,0.00
2023-01-04T03:14:59.893Z,0.00
2023-01-04T03:15:59.955Z,0.00
2023-01-04T03:16:59.874Z,0.00
2023-01-04T03:17:59.846Z,0.00
2023-01-04T03:18:59.856Z,0.00
2023-01-04T03:19:59.815Z,0.00
2023-01-04T03:20:59.859Z,0.00
2023-01-04T03:21:59.804Z,0.00
2023-01-04T03:22:59.811Z,0.00
2023-01-04T03:23:59.792Z,0.00
2023-01-04T03:24:59.803Z,0.00
2023-01-04T03:25:59.778Z,0.00
2023-01-04T03:26:59.783Z,0.00
2023-01-04T03:27:59.748Z,0.00
2023-01-04T03:28:59.743Z,0.00
2023-01-04T03:29:59.723Z,0.00
2023-01-04T03:30:59.772Z,0.00
2023-01-04T03:31:59.707Z,0.00
2023-01-04T03:32:59.711Z,0.00
2023-01-04T03:33:59.679Z,0.00
2023-01-04T03:34:59.673Z,0.00
2023-01-04T03:35:59.660Z,0.00
2023-01-04T03:36:59.721Z,0.00
2023-01-04T03:37:59.649Z,0.00
2023-01-04T03:38:59.640Z,0.00
2023-01-04T03:39:59.639Z,0.00
2023-01-04T03:40:59.618Z,0.00
2023-01-04T03:41:59.634Z,0.00
2023-01-04T03:42:59.590Z,0.00
2023-01-04T03:43:59.575Z,0.00
2023-01-04T03:45:04.445Z,0.00
2023-01-04T03:46:00.539Z,0.00
2023-01-04T03:46:59.587Z,0.00
2023-01-04T03:47:59.564Z,0.00
2023-01-04T03:48:59.528Z,0.00
2023-01-04T03:49:59.513Z,0.00
2023-01-04T03:50:59.507Z,0.00
2023-01-04T03:51:59.500Z,0.00
2023-01-04T03:52:59.507Z,0.00
2023-01-04T03:53:59.473Z,0.00
2023-01-04T03:54:59.457Z,0.00
2023-01-04T03:55:59.493Z,0.00
2023-01-04T03:56:59.448Z,0.00
2023-01-04T03:57:59.433Z,0.00
2023-01-04T03:58:59.458Z,0.00
2023-01-04T03:59:59.400Z,0.00
2023-01-04T04:00:59.450Z,0.00
2023-01-04T04:01:59.486Z,0.00
2023-01-04T04:02:59.385Z,0.00
2023-01-04T04:03:59.489Z,0.00
2023-01-04T04:04:59.380Z,0.00
2023-01-04T04:05:59.365Z,0.00
2023-01-04T04:06:59.399Z,0.00
2023-01-04T04:07:59.328Z,0.00
2023-01-04T04:08:59.349Z,0.00
2023-01-04T04:09:59.305Z,0.00
2023-01-04T04:10:59.319Z,0.00
2023-01-04T04:11:59.290Z,0.00
2023-01-04T04:12:59.271Z,0.00
2023-01-04T04:13:59.277Z,0.00
2023-01-04T04:14:59.276Z,0.00
2023-01-04T04:15:59.272Z,0.00
2023-01-04T04:16:59.334Z,0.00
2023-01-04T04:17:59.221Z,0.00
2023-01-04T04:19:03.260Z,0.00
2023-01-04T04:20:00.219Z,0.00
2023-01-04T04:20:59.247Z,0.00
2023-01-04T04:21:59.176Z,0.00
2023-01-04T04:22:59.171Z,0.00
2023-01-04T04:23:59.149Z,0.00
2023-01-04T04:24:59.185Z,0.00
2023-01-04T04:25:59.138Z,0.00
2023-01-04T04:26:59.135Z,0.00
2023-01-04T04:27:59.124Z,0.00
2023-01-04T04:28:59.113Z,0.00
2023-01-04T04:29:59.111Z,0.00
2023-01-04T04:30:59.102Z,0.00
2023-01-04T04:31:59.131Z,0.00
2023-01-04T04:32:59.063Z,0.00
2023-01-04T04:33:59.066Z,0.00
2023-01-04T04:34:59.072Z,0.00
2023-01-04T04:35:59.045Z,0.00
2023-01-04T04:36:59.047Z,0.00
2023-01-04T04:37:59.026Z,0.00
2023-01-04T04:38:59.019Z,0.00
2023-01-04T04:39:58.997Z,0.00
2023-01-04T04:40:59.013Z,0.00
2023-01-04T04:41:58.964Z,0.00
2023-01-04T04:42:58.972Z,0.00
2023-01-04T04:43:58.954Z,0.00
2023-01-04T04:44:58.948Z,0.00
2023-01-04T04:45:58.968Z,0.00
2023-01-04T04:46:58.933Z,0.00
2023-01-04T04:47:58.899Z,0.00
2023-01-04T04:48:58.914Z,0.00
2023-01-04T04:49:58.872Z,0.00
2023-01-04T04:50:58.885Z,0.00
2023-01-04T04:51:58.876Z,0.00
2023-01-04T04:52:58.849Z,0.00
2023-01-04T04:53:58.844Z,0.00
2023-01-04T04:54:58.844Z,0.00
2023-01-04T04:55:58.817Z,0.00
2023-01-04T04:56:58.834Z,0.00
2023-01-04T04:57:58.805Z,0.00
2023-01-04T04:58:58.826Z,0.00
2023-01-04T04:59:58.792Z,0.00
2023-01-04T05:00:58.827Z,0.00
2023-01-04T05:01:58.917Z,0.00
2023-01-04T05:02:58.922Z,0.00
2023-01-04T05:03:58.728Z,0.00
2023-01-04T05:04:58.770Z,0.00
2023-01-04T05:05:58.712Z,0.00
2023-01-04T05:06:58.736Z,0.00
2023-01-04T05:07:58.693Z,0.00
2023-01-04T05:08:58.748Z,0.00
2023-01-04T05:09:58.677Z,0.00
2023-01-04T05:10:58.676Z,0.00
2023-01-04T05:11:58.677Z,0.00
2023-01-04T05:12:58.645Z,0.00
2023-01-04T05:13:58.620Z,0.00
2023-01-04T05:14:58.651Z,0.00
2023-01-04T05:15:58.758Z,0.00
2023-01-04T05:16:58.764Z,0.00
2023-01-04T05:17:58.592Z,0.00
2023-01-04T05:18:58.598Z,0.00
2023-01-04T05:19:58.572Z,0.00
2023-01-04T05:20:58.564Z,0.00
2023-01-04T05:21:58.553Z,0.00
2023-01-04T05:22:58.574Z,0.00
2023-01-04T05:23:58.538Z,0.00
2023-01-04T05:24:58.506Z,0.00
2023-01-04T05:25:58.524Z,0.00
2023-01-04T05:26:58.509Z,0.00
2023-01-04T05:27:58.523Z,0.00
2023-01-04T05:28:58.483Z,0.00
2023-01-04T05:29:58.487Z,0.00
2023-01-04T05:30:58.469Z,0.00
2023-01-04T05:31:58.517Z,0.00
2023-01-04T05:32:58.453Z,0.00
2023-01-04T05:33:58.450Z,0.00
2023-01-04T05:34:58.413Z,0.00
2023-01-04T05:35:58.436Z,0.00
2023-01-04T05:36:58.425Z,0.00
2023-01-04T05:37:58.411Z,0.00
2023-01-04T05:38:58.386Z,0.00
2023-01-04T05:39:58.379Z,0.00
2023-01-04T05:40:58.380Z,0.00
2023-01-04T05:41:58.382Z,0.00
2023-01-04T05:42:58.355Z,0.00
2023-01-04T05:43:58.351Z,0.00
2023-01-04T05:44:58.321Z,0.00
2023-01-04T05:45:58.389Z,0.00
2023-01-04T05:46:58.464Z,0.00
2023-01-04T05:47:58.301Z,0.00
2023-01-04T05:48:58.297Z,0.00
2023-01-04T05:49:58.272Z,0.00
2023-01-04T05:50:58.242Z,0.00
2023-01-04T05:51:58.243Z,0.00
2023-01-04T05:52:58.220Z,0.00
2023-01-04T05:53:58.239Z,0.00
2023-01-04T05:54:58.196Z,0.00
2023-01-04T05:55:58.205Z,0.00
2023-01-04T05:56:58.179Z,0.00
2023-01-04T05:57:58.180Z,0.00
2023-01-04T05:58:58.173Z,0.00
2023-01-04T05:59:58.200Z,0.00
2023-01-04T06:00:58.162Z,0.00
2023-01-04T06:01:58.227Z,0.00
2023-01-04T06:02:58.207Z,0.00
2023-01-04T06:03:58.166Z,0.00
2023-01-04T06:04:59.646Z,0.00
2023-01-04T06:05:58.114Z,0.00
2023-01-04T06:06:58.097Z,0.00
2023-01-04T06:07:58.081Z,0.00
2023-01-04T06:08:58.070Z,0.00
2023-01-04T06:09:58.095Z,0.00
2023-01-04T06:10:58.051Z,0.00
2023-01-04T06:11:58.034Z,0.00
2023-01-04T06:12:58.020Z,0.00
2023-01-04T06:13:58.028Z,0.00
2023-01-04T06:14:58.029Z,0.00
2023-01-04T06:15:58.010Z,0.00
2023-01-04T06:16:58.023Z,0.00
2023-01-04T06:17:57.991Z,0.00
2023-01-04T06:18:57.956Z,0.00
2023-01-04T06:19:57.972Z,0.00
2023-01-04T06:20:57.952Z,0.00
2023-01-04T06:21:57.937Z,0.00
2023-01-04T06:22:57.918Z,0.00
2023-01-04T06:23:57.901Z,0.00
2023-01-04T06:24:57.886Z,0.00
2023-01-04T06:25:57.905Z,0.00
2023-01-04T06:26:57.859Z,0.00
2023-01-04T06:27:57.878Z,0.00
2023-01-04T06:28:57.840Z,0.00
2023-01-04T06:29:57.857Z,0.00
2023-01-04T06:30:57.915Z,0.00
2023-01-04T06:31:57.880Z,16.00
2023-01-04T06:32:57.823Z,0.00
2023-01-04T06:33:57.806Z,0.00
2023-01-04T06:34:57.781Z,0.00
2023-01-04T06:35:57.819Z,0.00
2023-01-04T06:36:57.780Z,0.00
2023-01-04T06:37:57.770Z,0.00
2023-01-04T06:38:57.749Z,0.00
2023-01-04T06:39:57.748Z,0.00
2023-01-04T06:40:57.725Z,0.00
2023-01-04T06:42:05.420Z,0.00
2023-01-04T06:42:58.725Z,0.00
2023-01-04T06:43:57.711Z,0.00
2023-01-04T06:44:57.685Z,0.00
2023-01-04T06:45:57.782Z,0.00
2023-01-04T06:46:57.667Z,0.00
2023-01-04T06:47:57.658Z,0.00
2023-01-04T06:48:57.624Z,0.00
2023-01-04T06:49:57.635Z,0.00
2023-01-04T06:50:57.639Z,0.00
2023-01-04T06:51:57.667Z,0.00
2023-01-04T06:52:57.624Z,0.00
2023-01-04T06:53:57.622Z,0.00
2023-01-04T06:54:57.583Z,0.00
2023-01-04T06:55:57.597Z,0.00
2023-01-04T06:56:57.582Z,0.00
2023-01-04T06:57:59.665Z,0.00
2023-01-04T06:58:57.532Z,4.00
2023-01-04T06:59:57.538Z,4.00
2023-01-04T07:00:57.548Z,0.00
2023-01-04T07:01:57.642Z,0.00
2023-01-04T07:03:14.949Z,4.00
2023-01-04T07:03:58.515Z,4.00
2023-01-04T07:04:57.545Z,4.00
2023-01-04T07:05:57.491Z,8.00
2023-01-04T07:06:57.443Z,8.00
2023-01-04T07:08:00.075Z,4.00
2023-01-04T07:08:58.433Z,8.00
2023-01-04T07:09:57.441Z,8.00
2023-01-04T07:10:57.420Z,12.00
2023-01-04T07:11:57.411Z,12.00
2023-01-04T07:12:57.402Z,16.00
2023-01-04T07:13:57.417Z,20.00
2023-01-04T07:14:57.370Z,20.00
2023-01-04T07:15:57.401Z,24.00
2023-01-04T07:16:57.345Z,28.00
2023-01-04T07:17:57.370Z,28.00
2023-01-04T07:18:57.336Z,32.00
2023-01-04T07:19:57.355Z,32.00
2023-01-04T07:20:57.348Z,32.00
2023-01-04T07:21:57.319Z,36.00
2023-01-04T07:22:57.293Z,36.00
2023-01-04T07:23:57.280Z,40.00
2023-01-04T07:24:57.297Z,40.00
2023-01-04T07:25:57.246Z,40.00
2023-01-04T07:26:57.265Z,40.00
2023-01-04T07:27:57.265Z,44.00
2023-01-04T07:28:57.230Z,40.00
2023-01-04T07:29:57.259Z,44.00
2023-01-04T07:30:57.273Z,40.00
2023-01-04T07:31:57.235Z,40.00
2023-01-04T07:32:57.177Z,36.00
2023-01-04T07:33:57.201Z,44.00
2023-01-04T07:34:57.189Z,40.00
2023-01-04T07:35:57.157Z,40.00
2023-01-04T07:36:57.142Z,44.00
2023-01-04T07:37:59.055Z,44.00
2023-01-04T07:38:57.122Z,52.00
2023-01-04T07:39:57.153Z,48.00
2023-01-04T07:40:57.378Z,48.00
2023-01-04T07:41:57.093Z,52.00
2023-01-04T07:42:57.184Z,52.00
2023-01-04T07:43:57.066Z,52.00
2023-01-04T07:44:57.067Z,60.00
2023-01-04T07:45:57.114Z,64.00
2023-01-04T07:46:57.055Z,68.00
2023-01-04T07:47:57.070Z,72.00
2023-01-04T07:48:57.020Z,80.00
2023-01-04T07:49:57.032Z,80.00
2023-01-04T07:50:57.033Z,96.00
2023-01-04T07:51:57.005Z,100.00
2023-01-04T07:52:56.957Z,92.00
2023-01-04T07:53:56.962Z,88.00
2023-01-04T07:54:57.049Z,88.00
2023-01-04T07:55:56.967Z,92.00
2023-01-04T07:56:56.927Z,100.00
2023-01-04T07:57:56.926Z,100.00
2023-01-04T07:58:56.974Z,104.00
2023-01-04T07:59:56.953Z,144.00
2023-01-04T08:00:56.914Z,148.00
2023-01-04T08:01:57.064Z,184.00
2023-01-04T08:02:57.102Z,160.00
2023-01-04T08:03:56.903Z,140.00
2023-01-04T08:04:56.923Z,180.00
2023-01-04T08:05:56.861Z,156.00
2023-01-04T08:06:56.807Z,164.00
2023-01-04T08:07:56.827Z,148.00
2023-01-04T08:08:56.805Z,128.00
2023-01-04T08:09:56.804Z,136.00
2023-01-04T08:10:56.826Z,144.00
2023-01-04T08:11:56.816Z,152.00
2023-01-04T08:12:56.776Z,160.00
2023-01-04T08:13:56.775Z,156.00
2023-01-04T08:14:56.724Z,164.00
2023-01-04T08:15:56.757Z,180.00
2023-01-04T08:16:56.733Z,160.00
2023-01-04T08:17:56.733Z,176.00
2023-01-04T08:18:56.687Z,168.00
2023-01-04T08:19:56.697Z,168.00
2023-01-04T08:20:58.630Z,180.00
2023-01-04T08:21:56.703Z,164.00
2023-01-04T08:22:56.706Z,168.00
2023-01-04T08:23:56.669Z,160.00
2023-01-04T08:24:56.632Z,168.00
2023-01-04T08:25:56.646Z,180.00
2023-01-04T08:26:56.631Z,172.00
2023-01-04T08:27:56.610Z,204.00
2023-01-04T08:28:56.719Z,172.00
2023-01-04T08:29:56.613Z,172.00
2023-01-04T08:30:56.581Z,204.00
2023-01-04T08:31:56.600Z,208.00
2023-01-04T08:32:56.559Z,204.00
2023-01-04T08:33:56.560Z,208.00
2023-01-04T08:34:56.526Z,212.00
2023-01-04T08:35:56.545Z,224.00
2023-01-04T08:36:56.540Z,236.00
2023-01-04T08:38:12.385Z,252.00
2023-01-04T08:39:00.504Z,296.00
2023-01-04T08:39:56.486Z,248.00
2023-01-04T08:40:59.765Z,284.00
2023-01-04T08:42:02.573Z,284.00
2023-01-04T08:42:57.478Z,264.00
2023-01-04T08:43:56.449Z,228.00
2023-01-04T08:44:59.595Z,248.00
2023-01-04T08:45:56.532Z,272.00
2023-01-04T08:46:56.720Z,240.00
2023-01-04T08:47:56.434Z,240.00
2023-01-04T08:48:56.404Z,260.00
2023-01-04T08:49:56.368Z,248.00
2023-01-04T08:50:56.374Z,276.00
2023-01-04T08:51:56.377Z,284.00
2023-01-04T08:52:56.337Z,280.00
2023-01-04T08:53:56.347Z,284.00
2023-01-04T08:54:56.349Z,312.00
2023-01-04T08:55:56.307Z,260.00
2023-01-04T08:56:56.317Z,272.00
2023-01-04T08:57:56.280Z,312.00
2023-01-04T08:58:56.284Z,300.00
2023-01-04T08:59:56.317Z,308.00
2023-01-04T09:00:56.281Z,288.00
2023-01-04T09:02:02.634Z,284.00
2023-01-04T09:02:57.482Z,296.00
2023-01-04T09:03:56.322Z,276.00
2023-01-04T09:04:56.268Z,280.00
2023-01-04T09:05:56.223Z,292.00
2023-01-04T09:06:56.210Z,292.00
2023-01-04T09:07:56.197Z,328.00
2023-01-04T09:08:56.181Z,332.00
2023-01-04T09:09:56.193Z,372.00
2023-01-04T09:10:56.150Z,352.00
2023-01-04T09:11:56.139Z,332.00
2023-01-04T09:12:56.129Z,312.00
2023-01-04T09:13:59.720Z,320.00
2023-01-04T09:14:57.141Z,364.00
2023-01-04T09:15:56.151Z,388.00
2023-01-04T09:16:56.108Z,396.00
2023-01-04T09:18:30.496Z,368.00
2023-01-04T09:18:57.084Z,408.00
2023-01-04T09:19:56.096Z,400.00
2023-01-04T09:20:56.060Z,364.00
2023-01-04T09:21:56.116Z,368.00
2023-01-04T09:22:56.049Z,360.00
2023-01-04T09:23:56.026Z,316.00
2023-01-04T09:24:56.007Z,328.00
2023-01-04T09:25:56.056Z,348.00
2023-01-04T09:26:55.990Z,400.00
2023-01-04T09:27:56.060Z,388.00
2023-01-04T09:28:55.967Z,412.00
2023-01-04T09:29:56.000Z,376.00
2023-01-04T09:30:56.009Z,392.00
2023-01-04T09:31:55.997Z,424.00
2023-01-04T09:32:55.934Z,440.00
2023-01-04T09:34:56.941Z,416.00
2023-01-04T09:35:55.916Z,436.00
2023-01-04T09:36:55.908Z,384.00
2023-01-04T09:37:55.900Z,348.00
2023-01-04T09:38:55.898Z,412.00
2023-01-04T09:39:55.861Z,444.00
2023-01-04T09:40:55.850Z,444.00
2023-01-04T09:41:55.836Z,480.00
2023-01-04T09:43:20.930Z,472.00
2023-01-04T09:43:56.815Z,472.00
2023-01-04T09:45:56.795Z,476.00
2023-01-04T09:46:55.893Z,496.00
2023-01-04T09:47:55.803Z,568.00
2023-01-04T09:48:55.778Z,520.00
2023-01-04T09:49:55.746Z,580.00
2023-01-04T09:50:55.754Z,520.00
2023-01-04T09:51:55.752Z,500.00
2023-01-04T09:52:55.758Z,520.00
2023-01-04T09:53:55.737Z,492.00
2023-01-04T09:54:58.972Z,480.00
2023-01-04T09:55:56.682Z,540.00
2023-01-04T09:56:55.676Z,484.00
2023-01-04T09:57:55.687Z,516.00
2023-01-04T09:58:55.664Z,564.00
2023-01-04T09:59:55.645Z,524.00
2023-01-04T10:00:55.726Z,528.00
2023-01-04T10:01:55.716Z,600.00
2023-01-04T10:02:56.015Z,584.00
2023-01-04T10:03:55.601Z,568.00
2023-01-04T10:04:55.588Z,576.00
2023-01-04T10:05:55.579Z,604.00
2023-01-04T10:07:00.985Z,636.00
2023-01-04T10:07:56.566Z,604.00
2023-01-04T10:08:55.558Z,544.00
2023-01-04T10:09:55.523Z,512.00
2023-01-04T10:10:55.557Z,516.00
2023-01-04T10:11:55.532Z,528.00
2023-01-04T10:12:59.794Z,536.00
2023-01-04T10:13:55.506Z,528.00
2023-01-04T10:14:55.500Z,612.00
2023-01-04T10:15:55.482Z,584.00
2023-01-04T10:17:13.581Z,576.00
2023-01-04T10:19:51.069Z,640.00
2023-01-04T10:21:56.493Z,636.00
2023-01-04T10:22:55.425Z,728.00
2023-01-04T10:23:55.405Z,764.00
2023-01-04T10:24:55.394Z,740.00
2023-01-04T10:25:55.376Z,704.00
2023-01-04T10:26:55.366Z,788.00
2023-01-04T10:27:55.429Z,856.00
2023-01-04T10:28:55.357Z,816.00
2023-01-04T10:29:55.351Z,792.00
2023-01-04T10:30:55.329Z,820.00
2023-01-04T10:31:55.354Z,852.00
2023-01-04T10:32:55.311Z,848.00
2023-01-04T10:33:55.319Z,796.00
2023-01-04T10:34:55.309Z,852.00
2023-01-04T10:35:55.269Z,816.00
2023-01-04T10:36:55.257Z,824.00
2023-01-04T10:37:55.227Z,800.00
2023-01-04T10:38:55.239Z,808.00
2023-01-04T10:39:55.275Z,772.00
2023-01-04T10:40:55.235Z,740.00
2023-01-04T10:41:55.198Z,736.00
2023-01-04T10:42:55.193Z,780.00
2023-01-04T10:44:12.210Z,684.00
2023-01-04T10:44:56.228Z,680.00
2023-01-04T10:45:55.154Z,728.00
2023-01-04T10:46:55.197Z,704.00
2023-01-04T10:47:55.143Z,736.00
2023-01-04T10:48:55.135Z,684.00
2023-01-04T10:49:55.110Z,752.00
2023-01-04T10:50:55.143Z,716.00
2023-01-04T10:51:55.087Z,692.00
2023-01-04T10:52:55.124Z,644.00
2023-01-04T10:53:55.083Z,684.00
2023-01-04T10:54:55.279Z,672.00
2023-01-04T10:56:24.953Z,720.00
2023-01-04T10:56:56.050Z,748.00
2023-01-04T10:57:55.025Z,784.00
2023-01-04T10:58:55.032Z,888.00
2023-01-04T10:59:55.008Z,944.00
2023-01-04T11:00:55.088Z,948.00
2023-01-04T11:01:55.231Z,908.00
2023-01-04T11:02:55.082Z,836.00
2023-01-04T11:03:54.961Z,856.00
2023-01-04T11:04:54.967Z,804.00
2023-01-04T11:05:55.007Z,784.00
2023-01-04T11:06:54.937Z,752.00
2023-01-04T11:07:54.925Z,808.00
2023-01-04T11:08:54.931Z,872.00
2023-01-04T11:09:54.988Z,912.00
2023-01-04T11:10:54.924Z,852.00
2023-01-04T11:11:54.887Z,744.00
2023-01-04T11:12:54.881Z,720.00
2023-01-04T11:13:54.883Z,708.00
2023-01-04T11:14:54.897Z,736.00
2023-01-04T11:15:54.904Z,812.00
2023-01-04T11:16:54.975Z,756.00
2023-01-04T11:17:54.817Z,732.00
2023-01-04T11:18:54.820Z,704.00
2023-01-04T11:19:55.033Z,740.00
2023-01-04T11:20:54.808Z,728.00
2023-01-04T11:21:54.810Z,772.00
2023-01-04T11:22:54.845Z,736.00
2023-01-04T11:23:59.660Z,732.00
2023-01-04T11:25:56.554Z,696.00
2023-01-04T11:26:54.777Z,764.00
2023-01-04T11:27:54.714Z,780.00
2023-01-04T11:28:54.713Z,780.00
2023-01-04T11:29:54.685Z,748.00
2023-01-04T11:30:54.714Z,736.00
2023-01-04T11:31:54.750Z,748.00
2023-01-04T11:32:54.714Z,684.00
2023-01-04T11:33:54.691Z,664.00
2023-01-04T11:34:54.670Z,652.00
2023-01-04T11:35:54.631Z,648.00
2023-01-04T11:36:54.659Z,628.00
2023-01-04T11:37:54.656Z,656.00
2023-01-04T11:38:54.610Z,652.00
2023-01-04T11:39:54.601Z,628.00
2023-01-04T11:40:54.591Z,664.00
2023-01-04T11:41:58.930Z,712.00
2023-01-04T11:42:55.600Z,752.00
2023-01-04T11:43:55.276Z,736.00
2023-01-04T11:44:54.548Z,784.00
2023-01-04T11:45:54.571Z,772.00
2023-01-04T11:46:54.543Z,840.00
2023-01-04T11:47:54.507Z,812.00
2023-01-04T11:48:54.522Z,776.00
2023-01-04T11:49:54.477Z,800.00
2023-01-04T11:50:54.486Z,864.00
2023-01-04T11:51:54.499Z,972.00
2023-01-04T11:52:54.478Z,880.00
2023-01-04T11:53:54.486Z,928.00
2023-01-04T11:54:54.457Z,928.00
2023-01-04T11:55:54.418Z,888.00
2023-01-04T11:56:54.431Z,968.00
2023-01-04T11:57:54.388Z,932.00
2023-01-04T11:58:54.419Z,852.00
2023-01-04T11:59:54.367Z,872.00
2023-01-04T12:00:54.378Z,944.00
2023-01-04T12:01:54.432Z,1036.00
2023-01-04T12:03:02.294Z,1032.00
2023-01-04T12:03:55.368Z,996.00
2023-01-04T12:04:54.330Z,964.00
2023-01-04T12:05:54.331Z,1144.00
2023-01-04T12:06:54.318Z,1024.00
2023-01-04T12:07:54.315Z,832.00
2023-01-04T12:08:54.310Z,780.00
2023-01-04T12:09:54.291Z,820.00
2023-01-04T12:10:54.307Z,664.00
2023-01-04T12:11:54.263Z,660.00
2023-01-04T12:12:54.252Z,624.00
2023-01-04T12:13:54.263Z,656.00
2023-01-04T12:14:54.263Z,696.00
2023-01-04T12:15:54.234Z,700.00
2023-01-04T12:16:54.202Z,708.00
2023-01-04T12:17:54.201Z,716.00
2023-01-04T12:18:54.191Z,672.00
2023-01-04T12:19:54.190Z,716.00
2023-01-04T12:20:54.176Z,876.00
2023-01-04T12:21:54.141Z,1260.00
2023-01-04T12:22:54.149Z,868.00
2023-01-04T12:23:54.133Z,844.00
2023-01-04T12:25:00.315Z,876.00
2023-01-04T12:25:55.112Z,936.00
2023-01-04T12:26:54.118Z,956.00
2023-01-04T12:27:54.315Z,992.00
2023-01-04T12:28:54.098Z,856.00
2023-01-04T12:29:54.083Z,952.00
2023-01-04T12:30:54.057Z,792.00
2023-01-04T12:31:54.062Z,880.00
2023-01-04T12:32:54.045Z,788.00
2023-01-04T12:33:54.021Z,764.00
2023-01-04T12:34:54.041Z,800.00
2023-01-04T12:35:54.019Z,780.00
2023-01-04T12:36:53.987Z,768.00
2023-01-04T12:37:53.990Z,644.00
2023-01-04T12:38:53.983Z,640.00
2023-01-04T12:39:53.995Z,664.00
2023-01-04T12:40:53.998Z,496.00
2023-01-04T12:41:53.925Z,520.00
2023-01-04T12:42:53.930Z,556.00
2023-01-04T12:43:53.928Z,584.00
2023-01-04T12:44:53.933Z,704.00
2023-01-04T12:45:53.988Z,660.00
2023-01-04T12:46:53.947Z,624.00
2023-01-04T12:47:53.885Z,652.00
2023-01-04T12:48:53.893Z,656.00
2023-01-04T12:49:53.864Z,588.00
2023-01-04T12:51:07.344Z,592.00
2023-01-04T12:53:54.805Z,652.00
2023-01-04T12:54:53.818Z,528.00
2023-01-04T12:55:53.788Z,432.00
2023-01-04T12:56:53.819Z,448.00
2023-01-04T12:57:53.786Z,456.00
2023-01-04T12:59:54.747Z,412.00
2023-01-04T13:00:53.747Z,424.00
2023-01-04T13:01:53.861Z,404.00
2023-01-04T13:02:54.307Z,432.00
2023-01-04T13:03:53.960Z,432.00
2023-01-04T13:05:17.052Z,416.00